sensor_id;sensor_type;location;lat;lon;timestamp;P1;durP1;ratioP1;P2;durP2;ratioP2
12707;SDS011;6418;50.824;4.718;2022-11-04T00:00:32;9.80;;;4.00;;
12707;SDS011;6418;50.824;4.718;2022-11-04T00:03:00;15.30;;;4.30;;
12707;SDS011;6418;50.824;4.718;2022-11-04T00:05:27;8.20;;;3.77;;
12707;SDS011;6418;50.824;4.718;2022-11-04T00:07:54;9.97;;;4.13;;
12707;SDS011;6418;50.824;4.718;2022-11-04T00:10:38;8.90;;;3.73;;
12707;SDS011;6418;50.824;4.718;2022-11-04T00:13:22;13.70;;;4.00;;
12707;SDS011;6418;50.824;4.718;2022-11-04T00:15:49;10.57;;;3.87;;
12707;SDS011;6418;50.824;4.718;2022-11-04T00:18:35;12.27;;;4.07;;
12707;SDS011;6418;50.824;4.718;2022-11-04T00:21:02;11.10;;;4.13;;
12707;SDS011;6418;50.824;4.718;2022-11-04T00:23:46;8.87;;;4.57;;
12707;SDS011;6418;50.824;4.718;2022-11-04T00:26:30;9.70;;;3.73;;
12707;SDS011;6418;50.824;4.718;2022-11-04T00:29:26;11.13;;;4.43;;
12707;SDS011;6418;50.824;4.718;2022-11-04T00:31:54;11.17;;;4.43;;
12707;SDS011;6418;50.824;4.718;2022-11-04T00:34:39;8.57;;;4.17;;
12707;SDS011;6418;50.824;4.718;2022-11-04T00:37:06;14.93;;;4.30;;
12707;SDS011;6418;50.824;4.718;2022-11-04T00:39:33;12.67;;;4.30;;
12707;SDS011;6418;50.824;4.718;2022-11-04T00:42:00;10.93;;;4.20;;
12707;SDS011;6418;50.824;4.718;2022-11-04T00:44:27;11.13;;;4.03;;
12707;SDS011;6418;50.824;4.718;2022-11-04T00:46:54;9.63;;;4.10;;
12707;SDS011;6418;50.824;4.718;2022-11-04T00:49:21;14.07;;;5.07;;
12707;SDS011;6418;50.824;4.718;2022-11-04T00:51:50;14.57;;;4.50;;
12707;SDS011;6418;50.824;4.718;2022-11-04T00:54:18;10.90;;;4.20;;
12707;SDS011;6418;50.824;4.718;2022-11-04T00:56:45;11.17;;;4.07;;
12707;SDS011;6418;50.824;4.718;2022-11-04T00:59:14;11.90;;;4.57;;
12707;SDS011;6418;50.824;4.718;2022-11-04T01:01:41;12.53;;;4.10;;
12707;SDS011;6418;50.824;4.718;2022-11-04T01:04:08;11.27;;;4.07;;
12707;SDS011;6418;50.824;4.718;2022-11-04T01:06:35;8.53;;;3.83;;
12707;SDS011;6418;50.824;4.718;2022-11-04T01:09:05;12.73;;;4.20;;
12707;SDS011;6418;50.824;4.718;2022-11-04T01:11:33;13.33;;;4.07;;
12707;SDS011;6418;50.824;4.718;2022-11-04T01:14:00;14.00;;;4.17;;
12707;SDS011;6418;50.824;4.718;2022-11-04T01:16:27;12.50;;;4.10;;
12707;SDS011;6418;50.824;4.718;2022-11-04T01:18:55;20.30;;;4.73;;
12707;SDS011;6418;50.824;4.718;2022-11-04T01:21:22;12.10;;;4.10;;
12707;SDS011;6418;50.824;4.718;2022-11-04T01:23:49;14.97;;;3.90;;
12707;SDS011;6418;50.824;4.718;2022-11-04T01:26:18;12.07;;;4.13;;
12707;SDS011;6418;50.824;4.718;2022-11-04T01:28:46;14.57;;;4.30;;
12707;SDS011;6418;50.824;4.718;2022-11-04T01:31:14;10.77;;;3.83;;
12707;SDS011;6418;50.824;4.718;2022-11-04T01:33:45;12.13;;;4.00;;
12707;SDS011;6418;50.824;4.718;2022-11-04T01:36:12;11.23;;;4.00;;
12707;SDS011;6418;50.824;4.718;2022-11-04T01:38:39;16.63;;;4.20;;
12707;SDS011;6418;50.824;4.718;2022-11-04T01:41:07;12.63;;;4.33;;
12707;SDS011;6418;50.824;4.718;2022-11-04T01:43:45;15.30;;;4.20;;
12707;SDS011;6418;50.824;4.718;2022-11-04T01:46:18;13.77;;;3.80;;
12707;SDS011;6418;50.824;4.718;2022-11-04T01:48:51;15.43;;;4.17;;
12707;SDS011;6418;50.824;4.718;2022-11-04T01:51:18;12.37;;;4.20;;
12707;SDS011;6418;50.824;4.718;2022-11-04T01:53:48;14.00;;;4.20;;
12707;SDS011;6418;50.824;4.718;2022-11-04T01:56:18;14.03;;;4.13;;
12707;SDS011;6418;50.824;4.718;2022-11-04T01:58:48;11.73;;;3.80;;
12707;SDS011;6418;50.824;4.718;2022-11-04T02:01:17;14.97;;;4.50;;
12707;SDS011;6418;50.824;4.718;2022-11-04T02:03:46;10.37;;;4.40;;
12707;SDS011;6418;50.824;4.718;2022-11-04T02:06:16;18.13;;;4.40;;
12707;SDS011;6418;50.824;4.718;2022-11-04T02:08:45;11.97;;;3.77;;
12707;SDS011;6418;50.824;4.718;2022-11-04T02:11:12;13.33;;;3.80;;
12707;SDS011;6418;50.824;4.718;2022-11-04T02:14:01;15.33;;;4.57;;
12707;SDS011;6418;50.824;4.718;2022-11-04T02:16:29;13.23;;;4.40;;
12707;SDS011;6418;50.824;4.718;2022-11-04T02:19:07;14.27;;;4.70;;
12707;SDS011;6418;50.824;4.718;2022-11-04T02:22:00;14.20;;;4.60;;
12707;SDS011;6418;50.824;4.718;2022-11-04T02:25:02;16.50;;;4.57;;
12707;SDS011;6418;50.824;4.718;2022-11-04T02:27:49;13.17;;;4.57;;
12707;SDS011;6418;50.824;4.718;2022-11-04T02:30:33;15.70;;;4.70;;
12707;SDS011;6418;50.824;4.718;2022-11-04T02:33:12;11.50;;;4.57;;
12707;SDS011;6418;50.824;4.718;2022-11-04T02:35:49;17.77;;;5.37;;
12707;SDS011;6418;50.824;4.718;2022-11-04T02:38:29;15.57;;;4.87;;
12707;SDS011;6418;50.824;4.718;2022-11-04T02:41:02;13.80;;;5.43;;
12707;SDS011;6418;50.824;4.718;2022-11-04T02:43:39;17.67;;;4.83;;
12707;SDS011;6418;50.824;4.718;2022-11-04T02:46:15;19.10;;;5.00;;
12707;SDS011;6418;50.824;4.718;2022-11-04T02:48:46;13.63;;;4.90;;
12707;SDS011;6418;50.824;4.718;2022-11-04T02:51:18;13.17;;;4.90;;
12707;SDS011;6418;50.824;4.718;2022-11-04T02:53:51;16.80;;;5.00;;
12707;SDS011;6418;50.824;4.718;2022-11-04T02:56:26;16.57;;;5.07;;
12707;SDS011;6418;50.824;4.718;2022-11-04T02:58:56;18.83;;;5.47;;
12707;SDS011;6418;50.824;4.718;2022-11-04T03:01:28;17.40;;;5.40;;
12707;SDS011;6418;50.824;4.718;2022-11-04T03:03:59;15.70;;;5.47;;
12707;SDS011;6418;50.824;4.718;2022-11-04T03:06:31;15.87;;;5.27;;
12707;SDS011;6418;50.824;4.718;2022-11-04T03:09:00;11.10;;;5.20;;
12707;SDS011;6418;50.824;4.718;2022-11-04T03:11:29;13.30;;;5.07;;
12707;SDS011;6418;50.824;4.718;2022-11-04T03:13:58;16.43;;;5.80;;
12707;SDS011;6418;50.824;4.718;2022-11-04T03:16:31;18.23;;;5.67;;
12707;SDS011;6418;50.824;4.718;2022-11-04T03:19:04;15.50;;;5.80;;
12707;SDS011;6418;50.824;4.718;2022-11-04T03:21:39;13.17;;;5.83;;
12707;SDS011;6418;50.824;4.718;2022-11-04T03:24:10;15.10;;;5.10;;
12707;SDS011;6418;50.824;4.718;2022-11-04T03:26:38;18.93;;;5.40;;
12707;SDS011;6418;50.824;4.718;2022-11-04T03:29:16;17.47;;;5.67;;
12707;SDS011;6418;50.824;4.718;2022-11-04T03:31:49;20.10;;;5.47;;
12707;SDS011;6418;50.824;4.718;2022-11-04T03:34:22;15.73;;;5.40;;
12707;SDS011;6418;50.824;4.718;2022-11-04T03:36:50;15.00;;;5.80;;
12707;SDS011;6418;50.824;4.718;2022-11-04T03:39:18;15.07;;;5.37;;
12707;SDS011;6418;50.824;4.718;2022-11-04T03:41:46;13.83;;;5.07;;
12707;SDS011;6418;50.824;4.718;2022-11-04T03:44:17;14.17;;;5.40;;
12707;SDS011;6418;50.824;4.718;2022-11-04T03:46:44;14.67;;;5.07;;
12707;SDS011;6418;50.824;4.718;2022-11-04T03:49:13;16.07;;;5.20;;
12707;SDS011;6418;50.824;4.718;2022-11-04T03:51:41;15.33;;;5.20;;
12707;SDS011;6418;50.824;4.718;2022-11-04T03:54:08;14.20;;;5.20;;
12707;SDS011;6418;50.824;4.718;2022-11-04T03:56:49;21.00;;;5.37;;
12707;SDS011;6418;50.824;4.718;2022-11-04T03:59:34;11.63;;;4.90;;
12707;SDS011;6418;50.824;4.718;2022-11-04T04:02:23;16.07;;;5.40;;
12707;SDS011;6418;50.824;4.718;2022-11-04T04:04:58;13.57;;;5.03;;
12707;SDS011;6418;50.824;4.718;2022-11-04T04:07:28;12.47;;;5.00;;
12707;SDS011;6418;50.824;4.718;2022-11-04T04:10:00;15.37;;;5.17;;
12707;SDS011;6418;50.824;4.718;2022-11-04T04:12:56;16.87;;;4.87;;
12707;SDS011;6418;50.824;4.718;2022-11-04T04:15:26;12.13;;;4.70;;
12707;SDS011;6418;50.824;4.718;2022-11-04T04:17:58;16.07;;;4.90;;
12707;SDS011;6418;50.824;4.718;2022-11-04T04:20:30;15.33;;;4.90;;
12707;SDS011;6418;50.824;4.718;2022-11-04T04:23:00;10.73;;;4.77;;
12707;SDS011;6418;50.824;4.718;2022-11-04T04:25:52;15.73;;;4.60;;
12707;SDS011;6418;50.824;4.718;2022-11-04T04:28:39;12.27;;;4.23;;
12707;SDS011;6418;50.824;4.718;2022-11-04T04:31:07;16.93;;;4.97;;
12707;SDS011;6418;50.824;4.718;2022-11-04T04:33:37;13.83;;;4.47;;
12707;SDS011;6418;50.824;4.718;2022-11-04T04:36:06;11.77;;;4.40;;
12707;SDS011;6418;50.824;4.718;2022-11-04T04:38:35;12.07;;;4.43;;
12707;SDS011;6418;50.824;4.718;2022-11-04T04:41:25;15.33;;;4.40;;
12707;SDS011;6418;50.824;4.718;2022-11-04T04:44:13;14.90;;;4.03;;
12707;SDS011;6418;50.824;4.718;2022-11-04T04:47:02;13.73;;;4.30;;
12707;SDS011;6418;50.824;4.718;2022-11-04T04:49:30;15.17;;;3.87;;
12707;SDS011;6418;50.824;4.718;2022-11-04T04:52:02;13.67;;;4.33;;
12707;SDS011;6418;50.824;4.718;2022-11-04T04:54:32;10.83;;;4.03;;
12707;SDS011;6418;50.824;4.718;2022-11-04T04:56:59;15.10;;;4.23;;
12707;SDS011;6418;50.824;4.718;2022-11-04T04:59:25;13.70;;;4.00;;
12707;SDS011;6418;50.824;4.718;2022-11-04T05:01:52;14.97;;;4.40;;
12707;SDS011;6418;50.824;4.718;2022-11-04T05:04:20;14.70;;;4.27;;
12707;SDS011;6418;50.824;4.718;2022-11-04T05:06:47;12.60;;;4.10;;
12707;SDS011;6418;50.824;4.718;2022-11-04T05:09:15;16.63;;;4.33;;
12707;SDS011;6418;50.824;4.718;2022-11-04T05:11:42;13.13;;;4.10;;
12707;SDS011;6418;50.824;4.718;2022-11-04T05:14:09;10.77;;;4.33;;
12707;SDS011;6418;50.824;4.718;2022-11-04T05:16:36;14.50;;;4.23;;
12707;SDS011;6418;50.824;4.718;2022-11-04T05:19:03;14.30;;;4.30;;
12707;SDS011;6418;50.824;4.718;2022-11-04T05:21:30;15.83;;;4.67;;
12707;SDS011;6418;50.824;4.718;2022-11-04T05:23:57;14.70;;;4.90;;
12707;SDS011;6418;50.824;4.718;2022-11-04T05:26:25;12.13;;;5.00;;
12707;SDS011;6418;50.824;4.718;2022-11-04T05:28:53;13.27;;;5.00;;
12707;SDS011;6418;50.824;4.718;2022-11-04T05:31:20;18.07;;;5.70;;
12707;SDS011;6418;50.824;4.718;2022-11-04T05:33:46;13.73;;;5.00;;
12707;SDS011;6418;50.824;4.718;2022-11-04T05:36:15;15.13;;;5.30;;
12707;SDS011;6418;50.824;4.718;2022-11-04T05:38:42;17.23;;;5.00;;
12707;SDS011;6418;50.824;4.718;2022-11-04T05:41:10;18.87;;;5.43;;
12707;SDS011;6418;50.824;4.718;2022-11-04T05:43:51;15.93;;;5.10;;
12707;SDS011;6418;50.824;4.718;2022-11-04T05:46:18;19.03;;;5.53;;
12707;SDS011;6418;50.824;4.718;2022-11-04T05:48:45;21.10;;;5.43;;
12707;SDS011;6418;50.824;4.718;2022-11-04T05:51:12;16.77;;;5.63;;
12707;SDS011;6418;50.824;4.718;2022-11-04T05:53:40;15.17;;;5.30;;
12707;SDS011;6418;50.824;4.718;2022-11-04T05:56:07;15.70;;;5.50;;
12707;SDS011;6418;50.824;4.718;2022-11-04T05:58:34;17.57;;;5.30;;
12707;SDS011;6418;50.824;4.718;2022-11-04T06:01:13;14.83;;;5.00;;
12707;SDS011;6418;50.824;4.718;2022-11-04T06:03:50;15.57;;;5.20;;
12707;SDS011;6418;50.824;4.718;2022-11-04T06:06:18;16.27;;;5.17;;
12707;SDS011;6418;50.824;4.718;2022-11-04T06:08:45;21.50;;;5.47;;
12707;SDS011;6418;50.824;4.718;2022-11-04T06:11:12;18.07;;;5.43;;
12707;SDS011;6418;50.824;4.718;2022-11-04T06:13:39;19.30;;;5.23;;
12707;SDS011;6418;50.824;4.718;2022-11-04T06:16:06;12.53;;;4.77;;
12707;SDS011;6418;50.824;4.718;2022-11-04T06:18:35;22.23;;;5.40;;
12707;SDS011;6418;50.824;4.718;2022-11-04T06:21:05;15.37;;;5.00;;
12707;SDS011;6418;50.824;4.718;2022-11-04T06:23:36;15.23;;;5.50;;
12707;SDS011;6418;50.824;4.718;2022-11-04T06:26:03;15.20;;;5.10;;
12707;SDS011;6418;50.824;4.718;2022-11-04T06:28:31;14.70;;;4.93;;
12707;SDS011;6418;50.824;4.718;2022-11-04T06:30:58;15.60;;;5.60;;
12707;SDS011;6418;50.824;4.718;2022-11-04T06:33:26;18.50;;;5.33;;
12707;SDS011;6418;50.824;4.718;2022-11-04T06:35:57;19.13;;;5.77;;
12707;SDS011;6418;50.824;4.718;2022-11-04T06:38:24;19.40;;;5.40;;
12707;SDS011;6418;50.824;4.718;2022-11-04T06:40:51;18.80;;;5.53;;
12707;SDS011;6418;50.824;4.718;2022-11-04T06:43:18;14.60;;;5.30;;
12707;SDS011;6418;50.824;4.718;2022-11-04T06:45:51;16.20;;;5.27;;
12707;SDS011;6418;50.824;4.718;2022-11-04T06:48:19;19.80;;;5.80;;
12707;SDS011;6418;50.824;4.718;2022-11-04T06:50:46;18.17;;;5.30;;
12707;SDS011;6418;50.824;4.718;2022-11-04T06:53:14;15.33;;;5.20;;
12707;SDS011;6418;50.824;4.718;2022-11-04T06:55:41;14.73;;;5.80;;
12707;SDS011;6418;50.824;4.718;2022-11-04T06:58:08;16.97;;;5.70;;
12707;SDS011;6418;50.824;4.718;2022-11-04T07:00:36;17.00;;;5.23;;
12707;SDS011;6418;50.824;4.718;2022-11-04T07:03:03;19.80;;;5.83;;
12707;SDS011;6418;50.824;4.718;2022-11-04T07:05:31;19.70;;;5.80;;
12707;SDS011;6418;50.824;4.718;2022-11-04T07:07:58;18.30;;;5.80;;
12707;SDS011;6418;50.824;4.718;2022-11-04T07:10:26;14.50;;;5.30;;
12707;SDS011;6418;50.824;4.718;2022-11-04T07:12:53;14.87;;;5.50;;
12707;SDS011;6418;50.824;4.718;2022-11-04T07:15:20;17.47;;;5.50;;
12707;SDS011;6418;50.824;4.718;2022-11-04T07:17:48;14.67;;;5.53;;
12707;SDS011;6418;50.824;4.718;2022-11-04T07:20:15;18.43;;;5.80;;
12707;SDS011;6418;50.824;4.718;2022-11-04T07:22:42;18.23;;;6.47;;
12707;SDS011;6418;50.824;4.718;2022-11-04T07:25:08;19.70;;;6.90;;
12707;SDS011;6418;50.824;4.718;2022-11-04T07:27:37;16.97;;;6.63;;
12707;SDS011;6418;50.824;4.718;2022-11-04T07:30:04;21.87;;;7.07;;
12707;SDS011;6418;50.824;4.718;2022-11-04T07:32:32;17.90;;;8.00;;
12707;SDS011;6418;50.824;4.718;2022-11-04T07:34:59;23.47;;;9.40;;
12707;SDS011;6418;50.824;4.718;2022-11-04T07:37:26;28.23;;;12.00;;
12707;SDS011;6418;50.824;4.718;2022-11-04T07:39:53;24.60;;;11.97;;
12707;SDS011;6418;50.824;4.718;2022-11-04T07:42:20;26.63;;;12.67;;
12707;SDS011;6418;50.824;4.718;2022-11-04T07:44:48;27.27;;;12.23;;
12707;SDS011;6418;50.824;4.718;2022-11-04T07:47:15;32.37;;;14.37;;
12707;SDS011;6418;50.824;4.718;2022-11-04T07:49:42;28.33;;;12.60;;
12707;SDS011;6418;50.824;4.718;2022-11-04T07:52:09;22.73;;;9.00;;
12707;SDS011;6418;50.824;4.718;2022-11-04T07:54:36;17.93;;;6.93;;
12707;SDS011;6418;50.824;4.718;2022-11-04T07:57:03;15.83;;;6.10;;
12707;SDS011;6418;50.824;4.718;2022-11-04T07:59:30;23.37;;;6.30;;
12707;SDS011;6418;50.824;4.718;2022-11-04T08:01:59;19.13;;;6.60;;
12707;SDS011;6418;50.824;4.718;2022-11-04T08:04:26;18.13;;;6.80;;
12707;SDS011;6418;50.824;4.718;2022-11-04T08:06:53;23.30;;;8.47;;
12707;SDS011;6418;50.824;4.718;2022-11-04T08:09:20;27.70;;;9.33;;
12707;SDS011;6418;50.824;4.718;2022-11-04T08:11:47;27.77;;;11.33;;
12707;SDS011;6418;50.824;4.718;2022-11-04T08:14:14;28.63;;;11.90;;
12707;SDS011;6418;50.824;4.718;2022-11-04T08:16:41;25.13;;;11.80;;
12707;SDS011;6418;50.824;4.718;2022-11-04T08:19:10;28.63;;;11.47;;
12707;SDS011;6418;50.824;4.718;2022-11-04T08:21:37;24.67;;;10.37;;
12707;SDS011;6418;50.824;4.718;2022-11-04T08:24:04;22.50;;;10.17;;
12707;SDS011;6418;50.824;4.718;2022-11-04T08:26:31;20.10;;;8.83;;
12707;SDS011;6418;50.824;4.718;2022-11-04T08:28:59;18.57;;;7.70;;
12707;SDS011;6418;50.824;4.718;2022-11-04T08:31:28;16.60;;;6.73;;
12707;SDS011;6418;50.824;4.718;2022-11-04T08:33:57;18.87;;;6.83;;
12707;SDS011;6418;50.824;4.718;2022-11-04T08:36:27;18.40;;;7.03;;
12707;SDS011;6418;50.824;4.718;2022-11-04T08:38:56;16.87;;;6.30;;
12707;SDS011;6418;50.824;4.718;2022-11-04T08:41:25;17.60;;;6.43;;
12707;SDS011;6418;50.824;4.718;2022-11-04T08:43:55;13.80;;;6.13;;
12707;SDS011;6418;50.824;4.718;2022-11-04T08:46:25;16.67;;;7.07;;
12707;SDS011;6418;50.824;4.718;2022-11-04T08:48:53;19.00;;;8.97;;
12707;SDS011;6418;50.824;4.718;2022-11-04T08:51:21;20.27;;;7.70;;
12707;SDS011;6418;50.824;4.718;2022-11-04T08:53:51;18.70;;;6.67;;
12707;SDS011;6418;50.824;4.718;2022-11-04T08:56:19;17.53;;;6.33;;
12707;SDS011;6418;50.824;4.718;2022-11-04T08:58:48;16.60;;;6.23;;
12707;SDS011;6418;50.824;4.718;2022-11-04T09:01:16;16.57;;;6.03;;
12707;SDS011;6418;50.824;4.718;2022-11-04T09:03:44;18.60;;;6.03;;
12707;SDS011;6418;50.824;4.718;2022-11-04T09:06:13;15.37;;;5.80;;
12707;SDS011;6418;50.824;4.718;2022-11-04T09:08:43;16.13;;;6.00;;
12707;SDS011;6418;50.824;4.718;2022-11-04T09:11:13;14.77;;;5.90;;
12707;SDS011;6418;50.824;4.718;2022-11-04T09:13:41;16.77;;;5.90;;
12707;SDS011;6418;50.824;4.718;2022-11-04T09:16:09;15.83;;;5.43;;
12707;SDS011;6418;50.824;4.718;2022-11-04T09:18:37;13.00;;;6.03;;
12707;SDS011;6418;50.824;4.718;2022-11-04T09:21:05;16.03;;;7.00;;
12707;SDS011;6418;50.824;4.718;2022-11-04T09:23:33;14.77;;;6.37;;
12707;SDS011;6418;50.824;4.718;2022-11-04T09:26:02;16.50;;;7.00;;
12707;SDS011;6418;50.824;4.718;2022-11-04T09:28:33;16.87;;;7.93;;
12707;SDS011;6418;50.824;4.718;2022-11-04T09:31:03;17.77;;;5.63;;
12707;SDS011;6418;50.824;4.718;2022-11-04T09:33:31;12.83;;;5.30;;
12707;SDS011;6418;50.824;4.718;2022-11-04T09:35:58;17.57;;;5.60;;
12707;SDS011;6418;50.824;4.718;2022-11-04T09:38:25;13.03;;;5.20;;
12707;SDS011;6418;50.824;4.718;2022-11-04T09:40:53;14.80;;;5.33;;
12707;SDS011;6418;50.824;4.718;2022-11-04T09:43:35;15.10;;;5.07;;
12707;SDS011;6418;50.824;4.718;2022-11-04T09:46:12;13.33;;;5.60;;
12707;SDS011;6418;50.824;4.718;2022-11-04T09:48:42;12.93;;;5.30;;
12707;SDS011;6418;50.824;4.718;2022-11-04T09:51:12;15.23;;;5.23;;
12707;SDS011;6418;50.824;4.718;2022-11-04T09:53:43;13.50;;;5.20;;
12707;SDS011;6418;50.824;4.718;2022-11-04T09:56:14;11.03;;;4.40;;
12707;SDS011;6418;50.824;4.718;2022-11-04T09:58:47;15.83;;;4.90;;
12707;SDS011;6418;50.824;4.718;2022-11-04T10:01:20;14.03;;;4.70;;
12707;SDS011;6418;50.824;4.718;2022-11-04T10:03:59;12.67;;;4.87;;
12707;SDS011;6418;50.824;4.718;2022-11-04T10:06:40;11.43;;;4.70;;
12707;SDS011;6418;50.824;4.718;2022-11-04T10:09:31;15.07;;;4.60;;
12707;SDS011;6418;50.824;4.718;2022-11-04T10:12:09;15.17;;;4.77;;
12707;SDS011;6418;50.824;4.718;2022-11-04T10:14:50;11.60;;;4.30;;
12707;SDS011;6418;50.824;4.718;2022-11-04T10:17:40;16.20;;;6.53;;
12707;SDS011;6418;50.824;4.718;2022-11-04T10:20:22;10.83;;;4.40;;
12707;SDS011;6418;50.824;4.718;2022-11-04T10:22:57;13.60;;;4.70;;
12707;SDS011;6418;50.824;4.718;2022-11-04T10:25:27;14.20;;;4.70;;
12707;SDS011;6418;50.824;4.718;2022-11-04T10:27:59;12.87;;;4.50;;
12707;SDS011;6418;50.824;4.718;2022-11-04T10:30:29;17.03;;;4.80;;
12707;SDS011;6418;50.824;4.718;2022-11-04T10:33:00;17.07;;;4.97;;
12707;SDS011;6418;50.824;4.718;2022-11-04T10:35:35;15.17;;;4.77;;
12707;SDS011;6418;50.824;4.718;2022-11-04T10:38:16;14.20;;;4.57;;
12707;SDS011;6418;50.824;4.718;2022-11-04T10:40:48;11.43;;;4.83;;
12707;SDS011;6418;50.824;4.718;2022-11-04T10:43:17;12.30;;;4.73;;
12707;SDS011;6418;50.824;4.718;2022-11-04T10:45:56;13.23;;;4.47;;
12707;SDS011;6418;50.824;4.718;2022-11-04T10:48:33;14.20;;;4.73;;
12707;SDS011;6418;50.824;4.718;2022-11-04T10:51:06;15.33;;;4.80;;
12707;SDS011;6418;50.824;4.718;2022-11-04T10:53:33;15.53;;;5.07;;
12707;SDS011;6418;50.824;4.718;2022-11-04T10:56:02;13.03;;;4.63;;
12707;SDS011;6418;50.824;4.718;2022-11-04T10:58:35;11.17;;;4.50;;
12707;SDS011;6418;50.824;4.718;2022-11-04T11:01:25;13.27;;;4.60;;
12707;SDS011;6418;50.824;4.718;2022-11-04T11:03:54;14.03;;;5.20;;
12707;SDS011;6418;50.824;4.718;2022-11-04T11:06:23;13.27;;;5.50;;
12707;SDS011;6418;50.824;4.718;2022-11-04T11:08:53;16.27;;;5.43;;
12707;SDS011;6418;50.824;4.718;2022-11-04T11:11:39;12.57;;;5.00;;
12707;SDS011;6418;50.824;4.718;2022-11-04T11:14:15;14.53;;;5.87;;
12707;SDS011;6418;50.824;4.718;2022-11-04T11:16:45;14.27;;;5.27;;
12707;SDS011;6418;50.824;4.718;2022-11-04T11:19:13;12.17;;;5.40;;
12707;SDS011;6418;50.824;4.718;2022-11-04T11:21:43;15.10;;;5.37;;
12707;SDS011;6418;50.824;4.718;2022-11-04T11:24:13;15.63;;;5.77;;
12707;SDS011;6418;50.824;4.718;2022-11-04T11:26:43;16.13;;;6.00;;
12707;SDS011;6418;50.824;4.718;2022-11-04T11:29:15;17.37;;;6.43;;
12707;SDS011;6418;50.824;4.718;2022-11-04T11:31:48;16.77;;;6.10;;
12707;SDS011;6418;50.824;4.718;2022-11-04T11:34:18;19.67;;;6.17;;
12707;SDS011;6418;50.824;4.718;2022-11-04T11:36:50;13.43;;;5.40;;
12707;SDS011;6418;50.824;4.718;2022-11-04T11:39:19;16.20;;;5.90;;
12707;SDS011;6418;50.824;4.718;2022-11-04T11:41:49;14.47;;;6.40;;
12707;SDS011;6418;50.824;4.718;2022-11-04T11:44:19;14.57;;;6.17;;
12707;SDS011;6418;50.824;4.718;2022-11-04T11:46:54;13.57;;;6.33;;
12707;SDS011;6418;50.824;4.718;2022-11-04T11:49:26;14.87;;;6.37;;
12707;SDS011;6418;50.824;4.718;2022-11-04T11:51:55;18.07;;;6.70;;
12707;SDS011;6418;50.824;4.718;2022-11-04T11:54:42;15.57;;;6.57;;
12707;SDS011;6418;50.824;4.718;2022-11-04T11:57:16;17.20;;;7.33;;
12707;SDS011;6418;50.824;4.718;2022-11-04T11:59:55;14.00;;;6.63;;
12707;SDS011;6418;50.824;4.718;2022-11-04T12:02:30;14.73;;;7.13;;
12707;SDS011;6418;50.824;4.718;2022-11-04T12:05:07;15.93;;;6.87;;
12707;SDS011;6418;50.824;4.718;2022-11-04T12:07:37;14.87;;;6.80;;
12707;SDS011;6418;50.824;4.718;2022-11-04T12:10:14;15.20;;;6.37;;
12707;SDS011;6418;50.824;4.718;2022-11-04T12:12:50;15.53;;;6.97;;
12707;SDS011;6418;50.824;4.718;2022-11-04T12:15:34;13.63;;;6.90;;
12707;SDS011;6418;50.824;4.718;2022-11-04T12:18:26;13.47;;;6.87;;
12707;SDS011;6418;50.824;4.718;2022-11-04T12:21:03;14.90;;;6.43;;
12707;SDS011;6418;50.824;4.718;2022-11-04T12:23:37;15.13;;;7.20;;
12707;SDS011;6418;50.824;4.718;2022-11-04T12:26:11;15.20;;;6.47;;
12707;SDS011;6418;50.824;4.718;2022-11-04T12:28:46;12.57;;;6.50;;
12707;SDS011;6418;50.824;4.718;2022-11-04T12:31:24;13.00;;;5.73;;
12707;SDS011;6418;50.824;4.718;2022-11-04T12:34:04;12.43;;;6.27;;
12707;SDS011;6418;50.824;4.718;2022-11-04T12:36:44;18.90;;;6.80;;
12707;SDS011;6418;50.824;4.718;2022-11-04T12:39:24;15.03;;;6.43;;
12707;SDS011;6418;50.824;4.718;2022-11-04T12:42:10;15.83;;;7.33;;
12707;SDS011;6418;50.824;4.718;2022-11-04T12:44:45;18.43;;;7.60;;
12707;SDS011;6418;50.824;4.718;2022-11-04T12:47:24;19.03;;;7.63;;
12707;SDS011;6418;50.824;4.718;2022-11-04T12:50:02;17.63;;;8.13;;
12707;SDS011;6418;50.824;4.718;2022-11-04T12:52:50;20.77;;;9.13;;
12707;SDS011;6418;50.824;4.718;2022-11-04T12:55:40;20.17;;;8.73;;
12707;SDS011;6418;50.824;4.718;2022-11-04T12:58:17;19.20;;;8.90;;
12707;SDS011;6418;50.824;4.718;2022-11-04T13:00:54;19.17;;;9.33;;
12707;SDS011;6418;50.824;4.718;2022-11-04T13:03:27;19.10;;;9.50;;
12707;SDS011;6418;50.824;4.718;2022-11-04T13:06:00;18.13;;;10.03;;
12707;SDS011;6418;50.824;4.718;2022-11-04T13:08:31;18.47;;;10.30;;
12707;SDS011;6418;50.824;4.718;2022-11-04T13:11:05;20.33;;;11.30;;
12707;SDS011;6418;50.824;4.718;2022-11-04T13:13:46;20.23;;;11.37;;
12707;SDS011;6418;50.824;4.718;2022-11-04T13:16:18;19.57;;;11.30;;
12707;SDS011;6418;50.824;4.718;2022-11-04T13:18:46;19.97;;;10.90;;
12707;SDS011;6418;50.824;4.718;2022-11-04T13:21:16;25.40;;;11.40;;
12707;SDS011;6418;50.824;4.718;2022-11-04T13:23:49;21.83;;;11.90;;
12707;SDS011;6418;50.824;4.718;2022-11-04T13:26:18;18.67;;;11.50;;
12707;SDS011;6418;50.824;4.718;2022-11-04T13:28:47;24.40;;;12.80;;
12707;SDS011;6418;50.824;4.718;2022-11-04T13:31:29;21.93;;;11.57;;
12707;SDS011;6418;50.824;4.718;2022-11-04T13:34:05;25.53;;;12.73;;
12707;SDS011;6418;50.824;4.718;2022-11-04T13:36:44;20.83;;;12.50;;
12707;SDS011;6418;50.824;4.718;2022-11-04T13:39:16;22.43;;;13.33;;
12707;SDS011;6418;50.824;4.718;2022-11-04T13:44:47;23.90;;;12.87;;
12707;SDS011;6418;50.824;4.718;2022-11-04T13:47:19;22.47;;;13.83;;
12707;SDS011;6418;50.824;4.718;2022-11-04T13:49:48;25.13;;;14.27;;
12707;SDS011;6418;50.824;4.718;2022-11-04T13:52:19;22.63;;;13.73;;
12707;SDS011;6418;50.824;4.718;2022-11-04T13:54:51;25.40;;;13.73;;
12707;SDS011;6418;50.824;4.718;2022-11-04T13:57:22;22.07;;;13.90;;
12707;SDS011;6418;50.824;4.718;2022-11-04T14:00:07;23.43;;;14.70;;
12707;SDS011;6418;50.824;4.718;2022-11-04T14:02:46;24.60;;;15.33;;
12707;SDS011;6418;50.824;4.718;2022-11-04T14:08:22;29.50;;;15.13;;
12707;SDS011;6418;50.824;4.718;2022-11-04T14:10:57;25.60;;;14.30;;
12707;SDS011;6418;50.824;4.718;2022-11-04T14:16:37;24.67;;;15.60;;
12707;SDS011;6418;50.824;4.718;2022-11-04T14:22:21;25.87;;;15.80;;
12707;SDS011;6418;50.824;4.718;2022-11-04T14:24:56;27.50;;;17.60;;
12707;SDS011;6418;50.824;4.718;2022-11-04T14:27:26;22.70;;;14.87;;
12707;SDS011;6418;50.824;4.718;2022-11-04T14:29:58;25.57;;;15.63;;
12707;SDS011;6418;50.824;4.718;2022-11-04T14:32:29;26.63;;;14.80;;
12707;SDS011;6418;50.824;4.718;2022-11-04T14:34:59;26.07;;;14.77;;
12707;SDS011;6418;50.824;4.718;2022-11-04T14:37:29;22.80;;;12.87;;
12707;SDS011;6418;50.824;4.718;2022-11-04T14:40:01;21.40;;;11.63;;
12707;SDS011;6418;50.824;4.718;2022-11-04T14:42:45;21.07;;;11.90;;
12707;SDS011;6418;50.824;4.718;2022-11-04T14:45:16;19.77;;;11.60;;
12707;SDS011;6418;50.824;4.718;2022-11-04T14:47:50;23.67;;;11.13;;
12707;SDS011;6418;50.824;4.718;2022-11-04T14:50:20;18.07;;;8.93;;
12707;SDS011;6418;50.824;4.718;2022-11-04T14:52:51;18.30;;;9.10;;
12707;SDS011;6418;50.824;4.718;2022-11-04T14:55:23;19.87;;;8.67;;
12707;SDS011;6418;50.824;4.718;2022-11-04T14:57:54;14.97;;;8.07;;
12707;SDS011;6418;50.824;4.718;2022-11-04T15:00:29;14.90;;;7.33;;
12707;SDS011;6418;50.824;4.718;2022-11-04T15:03:04;13.27;;;5.83;;
12707;SDS011;6418;50.824;4.718;2022-11-04T15:05:38;14.37;;;6.83;;
12707;SDS011;6418;50.824;4.718;2022-11-04T15:08:24;12.97;;;6.13;;
12707;SDS011;6418;50.824;4.718;2022-11-04T15:10:58;12.33;;;6.07;;
12707;SDS011;6418;50.824;4.718;2022-11-04T15:13:27;12.47;;;5.60;;
12707;SDS011;6418;50.824;4.718;2022-11-04T15:15:57;11.20;;;5.10;;
12707;SDS011;6418;50.824;4.718;2022-11-04T15:18:25;14.23;;;5.47;;
12707;SDS011;6418;50.824;4.718;2022-11-04T15:20:54;10.63;;;5.20;;
12707;SDS011;6418;50.824;4.718;2022-11-04T15:23:25;13.63;;;5.00;;
12707;SDS011;6418;50.824;4.718;2022-11-04T15:25:55;11.47;;;4.90;;